createdAt,value
2018-11-01T00:00:04.163Z,79.5
2018-11-01T00:05:06.554Z,81.5
2018-11-01T00:10:09.040Z,82
2018-11-01T00:15:11.409Z,81.1
2018-11-01T00:20:13.857Z,80
2018-11-01T00:25:16.300Z,79
2018-11-01T00:30:18.733Z,77.7
2018-11-01T00:35:21.185Z,78.3
2018-11-01T00:40:23.703Z,78
2018-11-01T00:45:26.052Z,77.2
2018-11-01T00:50:28.496Z,76.6
2018-11-01T00:55:30.958Z,76.8
2018-11-01T01:00:33.384Z,76.4
2018-11-01T01:05:35.837Z,76
2018-11-01T01:10:38.279Z,75.8
2018-11-01T01:15:40.728Z,76.5
2018-11-01T01:20:43.179Z,77.6
2018-11-01T01:25:45.716Z,79.1
2018-11-01T01:30:48.066Z,78.9
2018-11-01T01:35:50.511Z,78.8
2018-11-01T01:40:52.971Z,79.6
2018-11-01T01:45:55.400Z,83.6
2018-11-01T01:50:57.851Z,84
2018-11-01T01:56:00.291Z,83.3
2018-11-01T02:01:02.748Z,82.8
2018-11-01T02:06:05.191Z,82.5
2018-11-01T02:11:07.655Z,81.8
2018-11-01T02:16:10.061Z,81.2
2018-11-01T02:21:12.535Z,81.2
2018-11-01T02:26:14.959Z,80.7
2018-11-01T02:31:17.408Z,84
2018-11-01T02:36:19.853Z,85.6
2018-11-01T02:41:22.367Z,84.7
2018-11-01T02:46:24.733Z,84.2
2018-11-01T02:51:27.189Z,83
2018-11-01T03:01:32.118Z,83.3
2018-11-01T03:26:44.406Z,85.6
2018-11-01T03:31:46.850Z,89.5
2018-11-01T03:36:49.172Z,91.9
2018-11-01T03:41:51.592Z,92.3
2018-11-01T03:46:54.235Z,91.6
2018-11-01T03:51:56.681Z,90.8
2018-11-01T03:56:58.928Z,90.2
2018-11-01T04:02:01.391Z,90.6
2018-11-01T04:07:03.872Z,90.9
2018-11-01T04:12:06.285Z,90.3
2018-11-01T04:17:08.913Z,90.4
2018-11-01T04:22:11.239Z,90.4
2018-11-01T04:27:13.632Z,90.8
2018-11-01T04:32:16.101Z,91.9
2018-11-01T04:37:18.585Z,92.8
2018-11-01T04:42:20.979Z,93.3
2018-11-01T04:47:23.501Z,93.4
2018-11-01T04:52:25.844Z,93.7
2018-11-01T04:57:28.282Z,93.6
2018-11-01T05:02:30.750Z,93
2018-11-01T05:07:33.182Z,92.4
2018-11-01T05:12:35.677Z,92.3
2018-11-01T05:17:38.084Z,93.3
2018-11-01T05:22:40.615Z,93.9
2018-11-01T05:27:43.057Z,93.7
2018-11-01T05:32:45.428Z,93.1
2018-11-01T05:37:47.940Z,93
2018-11-01T05:42:50.373Z,93.3
2018-11-01T05:47:52.830Z,94.3
2018-11-01T05:52:55.179Z,94.4
2018-11-01T05:57:57.631Z,94.1
2018-11-01T06:03:00.112Z,94.2
2018-11-01T06:08:02.542Z,94.6
2018-11-01T06:13:04.972Z,94.3
2018-11-01T06:18:07.457Z,93.8
2018-11-01T06:23:09.870Z,93.5
2018-11-01T06:28:12.302Z,94
2018-11-01T06:33:14.759Z,94.5
2018-11-01T06:38:17.223Z,94.6
2018-11-01T06:43:19.641Z,94.7
2018-11-01T06:48:22.107Z,94.5
2018-11-01T06:53:24.548Z,94.4
2018-11-01T06:58:27.080Z,94.2
2018-11-01T07:03:29.438Z,94
2018-11-01T07:08:31.879Z,94.4
2018-11-01T07:13:34.304Z,94.6
2018-11-01T07:18:36.749Z,94.5
2018-11-01T07:23:39.393Z,94.3
2018-11-01T07:28:41.635Z,94.3
2018-11-01T07:38:46.503Z,94.5
2018-11-01T07:43:48.941Z,94.5
2018-11-01T07:48:51.373Z,94.5
2018-11-01T07:53:53.910Z,94.5
2018-11-01T07:58:56.275Z,94.5
2018-11-01T08:03:58.831Z,94.6
2018-11-01T08:09:01.139Z,94.5
2018-11-01T08:14:03.578Z,94.3
2018-11-01T08:19:06.018Z,94.2
2018-11-01T08:24:08.457Z,94.3
2018-11-01T08:29:10.912Z,94.5
2018-11-01T08:34:13.368Z,94.4
2018-11-01T08:39:15.949Z,94.4
2018-11-01T08:44:18.263Z,94.1
2018-11-01T08:49:20.701Z,93.6
2018-11-01T08:54:23.126Z,93.2
2018-11-01T08:59:25.555Z,92.9
2018-11-01T09:04:28.017Z,92.9
2018-11-01T09:09:30.477Z,92.6
2018-11-01T09:14:32.942Z,92.2
2018-11-01T09:19:35.371Z,91.5
2018-11-01T09:24:37.770Z,90.9
2018-11-01T09:29:40.233Z,90.3
2018-11-01T09:34:42.646Z,89.6
2018-11-01T09:39:45.084Z,88.9
2018-11-01T09:44:47.521Z,88.7
2018-11-01T09:49:49.963Z,88.4
2018-11-01T09:54:52.402Z,88
2018-11-01T09:59:54.882Z,86.9
2018-11-01T10:04:57.294Z,86
2018-11-01T10:09:59.735Z,85.4
2018-11-01T10:15:02.216Z,84.7
2018-11-01T10:20:04.615Z,83.8
2018-11-01T10:25:07.097Z,83
2018-11-01T10:30:09.483Z,81.5
2018-11-01T10:35:11.949Z,79.5
2018-11-01T10:40:14.388Z,78.1
2018-11-01T10:45:16.802Z,78.4
2018-11-01T10:50:19.260Z,78.7
2018-11-01T10:55:21.682Z,78.9
2018-11-01T11:00:24.268Z,79.2
2018-11-01T11:05:26.605Z,78.1
2018-11-01T11:10:29.008Z,77.5
2018-11-01T11:15:31.445Z,77.8
2018-11-01T11:20:34.261Z,77.4
2018-11-01T11:25:36.327Z,77
2018-11-01T11:30:38.973Z,77.3
2018-11-01T11:35:41.252Z,77.5
2018-11-01T11:40:43.674Z,77.9
2018-11-01T11:45:46.085Z,78.4
2018-11-01T11:50:48.556Z,78
2018-11-01T11:55:50.968Z,77.7
2018-11-01T12:00:53.429Z,77.5
2018-11-01T12:05:55.902Z,77.1
2018-11-01T12:10:58.290Z,77.5
2018-11-01T12:16:00.723Z,77.8
2018-11-01T12:21:03.181Z,77.7
2018-11-01T12:26:05.605Z,77.3
2018-11-01T12:31:08.047Z,76
2018-11-01T12:36:10.578Z,74.8
2018-11-01T12:41:12.925Z,75
2018-11-01T12:46:15.379Z,75.1
2018-11-01T12:51:17.816Z,75.2
2018-11-01T12:56:20.343Z,75.2
2018-11-01T13:01:22.696Z,75.4
2018-11-01T13:06:25.125Z,75.7
2018-11-01T13:11:27.588Z,76
2018-11-01T13:16:30.011Z,76.5
2018-11-01T13:21:32.501Z,76.6
2018-11-01T13:26:34.895Z,76.6
2018-11-01T13:31:37.340Z,76.6
2018-11-01T13:36:39.770Z,76.4
2018-11-01T13:41:42.299Z,76.3
2018-11-01T13:46:44.819Z,76.3
2018-11-01T13:51:47.188Z,76.5
2018-11-01T13:56:49.526Z,76.6
2018-11-01T14:01:51.988Z,76.6
2018-11-01T14:06:54.415Z,76.7
2018-11-01T14:11:56.874Z,76.7
2018-11-01T14:16:59.359Z,76.6
2018-11-01T14:22:01.760Z,76.6
2018-11-01T14:27:04.190Z,76.6
2018-11-01T14:32:06.621Z,76.7
2018-11-01T14:37:09.105Z,76.6
2018-11-01T14:42:11.549Z,76.6
2018-11-01T14:47:13.951Z,76.5
2018-11-01T14:52:17.009Z,76.6
2018-11-01T14:57:20.537Z,76.8
2018-11-01T15:02:21.274Z,76.8
2018-11-01T15:07:23.777Z,76.8
2018-11-01T15:12:26.150Z,76.9
2018-11-01T15:17:28.592Z,77
2018-11-01T15:22:31.046Z,77.1
2018-11-01T15:27:33.486Z,77.2
2018-11-01T15:37:38.487Z,77.1
2018-11-01T15:42:40.849Z,77.1
2018-11-01T15:47:43.233Z,77.2
2018-11-01T15:52:45.688Z,77.2
2018-11-01T15:57:48.132Z,77.1
2018-11-01T16:02:50.558Z,76.9
2018-11-01T16:07:53.001Z,77.2
2018-11-01T16:12:55.435Z,77.3
2018-11-01T16:17:57.873Z,77.4
2018-11-01T16:23:00.329Z,78.6
2018-11-01T16:28:02.790Z,79.1
2018-11-01T16:33:05.240Z,79.3
2018-11-01T16:38:07.692Z,79.5
2018-11-01T16:43:10.126Z,79.5
2018-11-01T16:48:12.541Z,79.4
2018-11-01T16:53:15.009Z,79.4
2018-11-01T16:58:17.433Z,79.3
2018-11-01T17:03:19.855Z,79.4
2018-11-01T17:08:22.302Z,79.5
2018-11-01T17:13:24.754Z,79.6
2018-11-01T17:18:27.188Z,79.2
2018-11-01T17:23:29.636Z,78.6
2018-11-01T17:28:32.070Z,78.2
2018-11-01T17:33:34.508Z,77.5
2018-11-01T17:38:36.951Z,77
2018-11-01T17:43:39.437Z,77.1
2018-11-01T17:48:41.830Z,77.2
2018-11-01T17:53:44.285Z,77
2018-11-01T17:58:46.706Z,77.1
2018-11-01T18:03:49.151Z,77.3
2018-11-01T18:08:51.732Z,77.6
2018-11-01T18:13:54.036Z,78
2018-11-01T18:18:56.466Z,77.9
2018-11-01T18:23:58.907Z,77.1
2018-11-01T18:29:01.577Z,76.2
2018-11-01T18:34:03.786Z,74.9
2018-11-01T18:39:06.342Z,74.1
2018-11-01T18:44:08.697Z,73.4
2018-11-01T18:49:11.102Z,72.9
2018-11-01T18:54:13.696Z,71.8
2018-11-01T18:59:15.996Z,70.9
2018-11-01T19:04:18.537Z,70.3
2018-11-01T19:09:20.887Z,69.9
2018-11-01T19:14:23.561Z,69.1
2018-11-01T19:19:25.855Z,67.6
2018-11-01T19:24:28.211Z,66.3
2018-11-01T19:29:30.634Z,65.2
2018-11-01T19:34:33.405Z,63.8
2018-11-01T19:39:35.529Z,62.8
2018-11-01T19:44:37.946Z,62.8
2018-11-01T19:49:40.556Z,62.2
2018-11-01T19:54:42.921Z,62.4
2018-11-01T19:59:45.296Z,62.6
2018-11-01T20:04:47.719Z,62.7
2018-11-01T20:09:50.182Z,63.1
2018-11-01T20:14:52.754Z,63.6
2018-11-01T20:19:55.034Z,63.7
2018-11-01T20:24:57.472Z,64.1
2018-11-01T20:29:59.923Z,64.2
2018-11-01T20:35:02.472Z,64.1
2018-11-01T20:40:04.792Z,64.1
2018-11-01T20:45:07.246Z,64.3
2018-11-01T20:50:09.702Z,65.5
2018-11-01T20:55:12.152Z,65.9
2018-11-01T21:00:14.573Z,66.9
2018-11-01T21:05:16.997Z,67.2
2018-11-01T21:10:19.450Z,67.4
2018-11-01T21:15:21.884Z,66.8
2018-11-01T21:20:24.320Z,66
2018-11-01T21:25:26.820Z,66.2
2018-11-01T21:30:29.236Z,66.2
2018-11-01T21:35:31.919Z,66.7
2018-11-01T21:40:34.191Z,67.2
2018-11-01T21:45:36.511Z,67.7
2018-11-01T21:50:38.947Z,68.1
2018-11-01T21:55:41.406Z,68.7
2018-11-01T22:00:43.830Z,69.4
2018-11-01T22:05:46.269Z,69.1
2018-11-01T22:10:48.724Z,68.7
2018-11-01T22:15:51.141Z,67.4
2018-11-01T22:20:53.624Z,66.3
2018-11-01T22:25:56.080Z,64.8
2018-11-01T22:30:58.503Z,64.2
2018-11-01T22:36:00.943Z,63.7
2018-11-01T22:41:03.365Z,63.3
2018-11-01T22:46:05.793Z,63.2
2018-11-01T22:51:08.243Z,62.7
2018-11-01T22:56:10.684Z,62.5
2018-11-01T23:01:13.160Z,62.2
2018-11-01T23:06:15.590Z,62
2018-11-01T23:11:18.028Z,61.9
2018-11-01T23:16:20.472Z,61.9
2018-11-01T23:21:22.867Z,61.7
2018-11-01T23:26:25.471Z,61.3
2018-11-01T23:31:27.849Z,61.3
2018-11-01T23:36:30.319Z,60.7
2018-11-01T23:41:32.685Z,60.7
2018-11-01T23:46:35.062Z,60.5
2018-11-01T23:51:37.577Z,60.3
2018-11-01T23:56:39.955Z,60.4
